sensor_id;sensor_type;location;lat;lon;timestamp;pressure;altitude;pressure_sealevel;temperature;humidity
56894;BME280;43392;50.078;13.704;2023-02-14T00:02:20;98907.84;;;1.44;82.23
56894;BME280;43392;50.078;13.704;2023-02-14T00:04:46;98910.88;;;1.32;82.50
56894;BME280;43392;50.078;13.704;2023-02-14T00:07:13;98911.88;;;1.23;82.73
56894;BME280;43392;50.078;13.704;2023-02-14T00:09:40;98914.53;;;1.15;82.85
56894;BME280;43392;50.078;13.704;2023-02-14T00:12:06;98911.75;;;1.09;83.38
56894;BME280;43392;50.078;13.704;2023-02-14T00:14:33;98917.50;;;1.04;83.63
56894;BME280;43392;50.078;13.704;2023-02-14T00:17:17;98908.09;;;1.02;83.95
56894;BME280;43392;50.078;13.704;2023-02-14T00:19:45;98916.84;;;1.02;84.27
56894;BME280;43392;50.078;13.704;2023-02-14T00:22:11;98909.94;;;1.01;83.56
56894;BME280;43392;50.078;13.704;2023-02-14T00:24:38;98916.56;;;0.89;83.44
56894;BME280;43392;50.078;13.704;2023-02-14T00:27:04;98918.69;;;0.78;83.37
56894;BME280;43392;50.078;13.704;2023-02-14T00:29:31;98915.56;;;0.74;83.57
56894;BME280;43392;50.078;13.704;2023-02-14T00:31:58;98919.19;;;0.81;83.72
56894;BME280;43392;50.078;13.704;2023-02-14T00:34:25;98920.84;;;0.82;84.05
56894;BME280;43392;50.078;13.704;2023-02-14T00:36:53;98924.63;;;0.88;84.31
56894;BME280;43392;50.078;13.704;2023-02-14T00:39:20;98912.91;;;0.90;84.30
56894;BME280;43392;50.078;13.704;2023-02-14T00:41:46;98905.47;;;0.94;84.43
56894;BME280;43392;50.078;13.704;2023-02-14T00:44:13;98903.31;;;0.97;84.07
56894;BME280;43392;50.078;13.704;2023-02-14T00:46:40;98904.81;;;1.00;84.45
56894;BME280;43392;50.078;13.704;2023-02-14T00:49:06;98895.91;;;1.01;83.94
56894;BME280;43392;50.078;13.704;2023-02-14T00:51:33;98903.97;;;1.07;84.23
56894;BME280;43392;50.078;13.704;2023-02-14T00:54:01;98901.66;;;1.12;84.06
56894;BME280;43392;50.078;13.704;2023-02-14T00:56:27;98906.28;;;1.18;84.40
56894;BME280;43392;50.078;13.704;2023-02-14T00:58:54;98905.25;;;1.27;84.76
56894;BME280;43392;50.078;13.704;2023-02-14T01:01:21;98907.88;;;1.36;85.04
56894;BME280;43392;50.078;13.704;2023-02-14T01:03:47;98912.47;;;1.42;84.51
56894;BME280;43392;50.078;13.704;2023-02-14T01:06:14;98911.19;;;1.29;83.77
56894;BME280;43392;50.078;13.704;2023-02-14T01:08:40;98901.31;;;1.15;83.53
56894;BME280;43392;50.078;13.704;2023-02-14T01:11:10;98909.06;;;1.17;84.42
56894;BME280;43392;50.078;13.704;2023-02-14T01:13:37;98907.91;;;1.19;83.88
56894;BME280;43392;50.078;13.704;2023-02-14T01:16:05;98907.91;;;1.19;84.09
56894;BME280;43392;50.078;13.704;2023-02-14T01:18:33;98906.09;;;1.20;84.71
56894;BME280;43392;50.078;13.704;2023-02-14T01:21:12;98919.97;;;1.22;84.42
56894;BME280;43392;50.078;13.704;2023-02-14T01:23:39;98910.72;;;1.18;84.77
56894;BME280;43392;50.078;13.704;2023-02-14T01:26:06;98911.19;;;1.21;84.85
56894;BME280;43392;50.078;13.704;2023-02-14T01:28:34;98907.56;;;1.30;84.92
56894;BME280;43392;50.078;13.704;2023-02-14T01:31:09;98897.47;;;1.26;85.03
56894;BME280;43392;50.078;13.704;2023-02-14T01:33:36;98903.59;;;1.26;84.78
56894;BME280;43392;50.078;13.704;2023-02-14T01:36:03;98898.81;;;1.22;85.22
56894;BME280;43392;50.078;13.704;2023-02-14T01:38:30;98896.69;;;1.25;85.31
56894;BME280;43392;50.078;13.704;2023-02-14T01:40:57;98891.03;;;1.28;85.19
56894;BME280;43392;50.078;13.704;2023-02-14T01:43:24;98903.25;;;1.38;85.25
56894;BME280;43392;50.078;13.704;2023-02-14T01:45:52;98888.69;;;1.42;85.22
56894;BME280;43392;50.078;13.704;2023-02-14T01:48:20;98891.66;;;1.47;85.00
56894;BME280;43392;50.078;13.704;2023-02-14T01:50:48;98884.56;;;1.47;84.82
56894;BME280;43392;50.078;13.704;2023-02-14T01:53:21;98879.56;;;1.52;85.03
56894;BME280;43392;50.078;13.704;2023-02-14T01:55:51;98885.34;;;1.56;85.39
56894;BME280;43392;50.078;13.704;2023-02-14T01:58:23;98882.97;;;1.69;85.81
56894;BME280;43392;50.078;13.704;2023-02-14T02:00:52;98881.59;;;1.81;86.04
56894;BME280;43392;50.078;13.704;2023-02-14T02:03:27;98880.03;;;1.94;86.37
56894;BME280;43392;50.078;13.704;2023-02-14T02:05:58;98886.41;;;2.08;86.42
56894;BME280;43392;50.078;13.704;2023-02-14T02:08:28;98879.88;;;2.19;86.38
56894;BME280;43392;50.078;13.704;2023-02-14T02:10:55;98880.81;;;2.26;86.37
56894;BME280;43392;50.078;13.704;2023-02-14T02:13:22;98876.47;;;2.33;86.11
56894;BME280;43392;50.078;13.704;2023-02-14T02:16:01;98878.41;;;2.39;86.15
56894;BME280;43392;50.078;13.704;2023-02-14T02:18:42;98874.72;;;2.25;84.12
56894;BME280;43392;50.078;13.704;2023-02-14T02:24:24;98855.31;;;1.79;84.25
56894;BME280;43392;50.078;13.704;2023-02-14T02:27:15;98855.44;;;1.86;85.69
56894;BME280;43392;50.078;13.704;2023-02-14T02:32:54;98854.88;;;2.21;86.87
56894;BME280;43392;50.078;13.704;2023-02-14T02:35:52;98854.72;;;2.23;85.29
56894;BME280;43392;50.078;13.704;2023-02-14T02:38:38;98852.69;;;2.02;84.83
56894;BME280;43392;50.078;13.704;2023-02-14T02:41:18;98845.09;;;1.99;85.65
56894;BME280;43392;50.078;13.704;2023-02-14T02:43:53;98858.63;;;2.04;86.05
56894;BME280;43392;50.078;13.704;2023-02-14T02:46:23;98850.09;;;1.94;84.90
56894;BME280;43392;50.078;13.704;2023-02-14T02:49:13;98846.41;;;1.72;84.37
56894;BME280;43392;50.078;13.704;2023-02-14T02:52:08;98852.56;;;1.65;85.29
56894;BME280;43392;50.078;13.704;2023-02-14T02:54:58;98859.28;;;1.75;85.72
56894;BME280;43392;50.078;13.704;2023-02-14T02:57:31;98858.16;;;1.70;84.86
56894;BME280;43392;50.078;13.704;2023-02-14T02:59:58;98856.56;;;1.61;84.75
56894;BME280;43392;50.078;13.704;2023-02-14T03:02:30;98845.66;;;1.56;85.08
56894;BME280;43392;50.078;13.704;2023-02-14T03:05:01;98847.16;;;1.58;84.81
56894;BME280;43392;50.078;13.704;2023-02-14T03:07:33;98846.19;;;1.51;84.39
56894;BME280;43392;50.078;13.704;2023-02-14T03:10:03;98853.50;;;1.41;84.81
56894;BME280;43392;50.078;13.704;2023-02-14T03:12:55;98854.66;;;1.39;84.87
56894;BME280;43392;50.078;13.704;2023-02-14T03:15:34;98849.06;;;1.33;84.84
56894;BME280;43392;50.078;13.704;2023-02-14T03:18:07;98858.66;;;1.34;85.03
56894;BME280;43392;50.078;13.704;2023-02-14T03:20:44;98858.34;;;1.29;85.00
56894;BME280;43392;50.078;13.704;2023-02-14T03:23:19;98868.59;;;1.24;84.74
56894;BME280;43392;50.078;13.704;2023-02-14T03:25:54;98864.31;;;1.23;85.07
56894;BME280;43392;50.078;13.704;2023-02-14T03:28:31;98859.31;;;1.28;85.27
56894;BME280;43392;50.078;13.704;2023-02-14T03:31:02;98859.94;;;1.39;85.20
56894;BME280;43392;50.078;13.704;2023-02-14T03:33:39;98864.25;;;1.40;85.28
56894;BME280;43392;50.078;13.704;2023-02-14T03:36:12;98856.66;;;1.37;85.50
56894;BME280;43392;50.078;13.704;2023-02-14T03:38:46;98864.25;;;1.40;85.85
56894;BME280;43392;50.078;13.704;2023-02-14T03:41:19;98853.47;;;1.49;86.15
56894;BME280;43392;50.078;13.704;2023-02-14T03:43:50;98859.91;;;1.55;85.58
56894;BME280;43392;50.078;13.704;2023-02-14T03:46:18;98858.75;;;1.49;85.43
56894;BME280;43392;50.078;13.704;2023-02-14T03:48:49;98857.63;;;1.44;85.48
56894;BME280;43392;50.078;13.704;2023-02-14T03:51:19;98864.91;;;1.42;85.62
56894;BME280;43392;50.078;13.704;2023-02-14T03:53:52;98863.59;;;1.38;85.68
56894;BME280;43392;50.078;13.704;2023-02-14T03:56:24;98849.56;;;1.37;86.63
56894;BME280;43392;50.078;13.704;2023-02-14T03:58:56;98854.81;;;1.45;86.53
56894;BME280;43392;50.078;13.704;2023-02-14T04:01:29;98850.03;;;1.41;86.06
56894;BME280;43392;50.078;13.704;2023-02-14T04:03:56;98849.22;;;1.40;86.18
56894;BME280;43392;50.078;13.704;2023-02-14T04:06:24;98851.03;;;1.40;85.92
56894;BME280;43392;50.078;13.704;2023-02-14T04:08:52;98839.81;;;1.38;86.30
56894;BME280;43392;50.078;13.704;2023-02-14T04:11:18;98844.75;;;1.41;86.19
56894;BME280;43392;50.078;13.704;2023-02-14T04:13:45;98854.16;;;1.43;86.49
56894;BME280;43392;50.078;13.704;2023-02-14T04:16:12;98855.63;;;1.46;86.61
56894;BME280;43392;50.078;13.704;2023-02-14T04:18:38;98857.09;;;1.48;86.68
56894;BME280;43392;50.078;13.704;2023-02-14T04:21:22;98843.22;;;1.54;86.55
56894;BME280;43392;50.078;13.704;2023-02-14T04:23:49;98839.06;;;1.60;86.52
56894;BME280;43392;50.078;13.704;2023-02-14T04:26:17;98848.28;;;1.64;86.48
56894;BME280;43392;50.078;13.704;2023-02-14T04:28:44;98847.47;;;1.63;86.46
56894;BME280;43392;50.078;13.704;2023-02-14T04:31:10;98834.06;;;1.65;86.39
56894;BME280;43392;50.078;13.704;2023-02-14T04:33:38;98848.75;;;1.67;86.55
56894;BME280;43392;50.078;13.704;2023-02-14T04:36:05;98838.47;;;1.72;86.62
56894;BME280;43392;50.078;13.704;2023-02-14T04:38:32;98842.78;;;1.73;86.44
56894;BME280;43392;50.078;13.704;2023-02-14T04:40:58;98839.81;;;1.76;86.45
56894;BME280;43392;50.078;13.704;2023-02-14T04:43:26;98837.63;;;1.80;86.59
56894;BME280;43392;50.078;13.704;2023-02-14T04:45:54;98838.25;;;1.82;86.30
56894;BME280;43392;50.078;13.704;2023-02-14T04:48:20;98845.22;;;1.83;86.37
56894;BME280;43392;50.078;13.704;2023-02-14T04:50:50;98842.91;;;1.80;86.24
56894;BME280;43392;50.078;13.704;2023-02-14T04:53:16;98837.63;;;1.80;86.27
56894;BME280;43392;50.078;13.704;2023-02-14T04:55:43;98839.63;;;1.78;86.22
56894;BME280;43392;50.078;13.704;2023-02-14T04:58:10;98831.88;;;1.76;86.37
56894;BME280;43392;50.078;13.704;2023-02-14T05:00:38;98839.50;;;1.71;86.21
56894;BME280;43392;50.078;13.704;2023-02-14T05:03:04;98837.00;;;1.70;86.01
56894;BME280;43392;50.078;13.704;2023-02-14T05:05:31;98831.56;;;1.71;86.27
56894;BME280;43392;50.078;13.704;2023-02-14T05:07:58;98829.22;;;1.76;86.43
56894;BME280;43392;50.078;13.704;2023-02-14T05:10:24;98834.97;;;1.80;86.70
56894;BME280;43392;50.078;13.704;2023-02-14T05:12:51;98838.94;;;1.84;86.33
56894;BME280;43392;50.078;13.704;2023-02-14T05:15:17;98838.94;;;1.84;86.17
56894;BME280;43392;50.078;13.704;2023-02-14T05:17:45;98833.16;;;1.80;86.08
56894;BME280;43392;50.078;13.704;2023-02-14T05:20:12;98831.69;;;1.78;86.22
56894;BME280;43392;50.078;13.704;2023-02-14T05:22:39;98824.72;;;1.77;86.23
56894;BME280;43392;50.078;13.704;2023-02-14T05:25:05;98837.63;;;1.80;86.52
56894;BME280;43392;50.078;13.704;2023-02-14T05:27:32;98844.88;;;1.86;86.31
56894;BME280;43392;50.078;13.704;2023-02-14T05:29:58;98840.41;;;1.86;85.93
56894;BME280;43392;50.078;13.704;2023-02-14T05:32:25;98839.41;;;1.87;86.16
56894;BME280;43392;50.078;13.704;2023-02-14T05:34:53;98836.22;;;1.92;86.63
56894;BME280;43392;50.078;13.704;2023-02-14T05:37:20;98837.34;;;1.97;86.64
56894;BME280;43392;50.078;13.704;2023-02-14T05:39:46;98836.63;;;2.03;86.85
56894;BME280;43392;50.078;13.704;2023-02-14T05:42:13;98826.19;;;2.10;87.17
56894;BME280;43392;50.078;13.704;2023-02-14T05:44:39;98812.09;;;2.18;87.40
56894;BME280;43392;50.078;13.704;2023-02-14T05:47:06;98820.31;;;2.23;87.52
56894;BME280;43392;50.078;13.704;2023-02-14T05:49:33;98820.31;;;2.23;87.09
56894;BME280;43392;50.078;13.704;2023-02-14T05:52:01;98821.31;;;2.22;87.28
56894;BME280;43392;50.078;13.704;2023-02-14T05:54:28;98822.47;;;2.19;87.68
56894;BME280;43392;50.078;13.704;2023-02-14T05:56:55;98823.13;;;2.21;87.75
56894;BME280;43392;50.078;13.704;2023-02-14T05:59:21;98817.66;;;2.23;87.86
56894;BME280;43392;50.078;13.704;2023-02-14T06:01:48;98826.91;;;2.27;87.82
56894;BME280;43392;50.078;13.704;2023-02-14T06:04:14;98827.34;;;2.30;87.94
56894;BME280;43392;50.078;13.704;2023-02-14T06:06:41;98830.66;;;2.32;87.87
56894;BME280;43392;50.078;13.704;2023-02-14T06:09:09;98823.19;;;2.36;87.97
56894;BME280;43392;50.078;13.704;2023-02-14T06:11:35;98827.28;;;2.38;88.30
56894;BME280;43392;50.078;13.704;2023-02-14T06:14:02;98819.06;;;2.33;88.50
56894;BME280;43392;50.078;13.704;2023-02-14T06:16:28;98830.81;;;2.31;88.70
56894;BME280;43392;50.078;13.704;2023-02-14T06:18:55;98828.19;;;2.31;88.88
56894;BME280;43392;50.078;13.704;2023-02-14T06:21:21;98823.72;;;2.31;88.72
56894;BME280;43392;50.078;13.704;2023-02-14T06:23:48;98829.00;;;2.31;88.93
56894;BME280;43392;50.078;13.704;2023-02-14T06:26:16;98825.66;;;2.37;88.95
56894;BME280;43392;50.078;13.704;2023-02-14T06:28:43;98830.97;;;2.37;88.66
56894;BME280;43392;50.078;13.704;2023-02-14T06:31:14;98829.66;;;2.33;88.22
56894;BME280;43392;50.078;13.704;2023-02-14T06:33:41;98832.00;;;2.28;88.58
56894;BME280;43392;50.078;13.704;2023-02-14T06:36:08;98834.50;;;2.30;88.80
56894;BME280;43392;50.078;13.704;2023-02-14T06:38:35;98816.41;;;2.33;88.88
56894;BME280;43392;50.078;13.704;2023-02-14T06:41:02;98820.19;;;2.39;88.70
56894;BME280;43392;50.078;13.704;2023-02-14T06:43:30;98826.94;;;2.41;88.43
56894;BME280;43392;50.078;13.704;2023-02-14T06:45:57;98828.75;;;2.41;88.52
56894;BME280;43392;50.078;13.704;2023-02-14T06:48:24;98824.94;;;2.43;88.62
56894;BME280;43392;50.078;13.704;2023-02-14T06:50:50;98820.13;;;2.47;88.39
56894;BME280;43392;50.078;13.704;2023-02-14T06:53:17;98822.78;;;2.47;88.27
56894;BME280;43392;50.078;13.704;2023-02-14T06:55:44;98824.41;;;2.48;88.25
56894;BME280;43392;50.078;13.704;2023-02-14T06:58:11;98825.22;;;2.48;88.51
56894;BME280;43392;50.078;13.704;2023-02-14T07:00:39;98819.44;;;2.45;88.36
56894;BME280;43392;50.078;13.704;2023-02-14T07:03:06;98821.31;;;2.44;88.64
56894;BME280;43392;50.078;13.704;2023-02-14T07:05:33;98828.06;;;2.47;88.70
56894;BME280;43392;50.078;13.704;2023-02-14T07:08:00;98819.75;;;2.50;88.67
56894;BME280;43392;50.078;13.704;2023-02-14T07:10:26;98826.16;;;2.55;88.46
56894;BME280;43392;50.078;13.704;2023-02-14T07:12:53;98820.16;;;2.61;88.18
56894;BME280;43392;50.078;13.704;2023-02-14T07:15:19;98813.50;;;2.65;88.14
56894;BME280;43392;50.078;13.704;2023-02-14T07:17:47;98816.53;;;3.21;94.59
56894;BME280;43392;50.078;13.704;2023-02-14T07:20:14;98805.75;;;6.01;97.80
56894;BME280;43392;50.078;13.704;2023-02-14T07:22:42;98799.25;;;7.72;81.15
56894;BME280;43392;50.078;13.704;2023-02-14T07:25:09;98804.41;;;6.77;74.00
56894;BME280;43392;50.078;13.704;2023-02-14T07:27:36;98806.59;;;5.54;75.28
56894;BME280;43392;50.078;13.704;2023-02-14T07:30:04;98811.78;;;4.66;77.88
56894;BME280;43392;50.078;13.704;2023-02-14T07:32:31;98805.13;;;4.07;80.06
56894;BME280;43392;50.078;13.704;2023-02-14T07:34:59;98804.13;;;3.72;81.63
56894;BME280;43392;50.078;13.704;2023-02-14T07:37:26;98804.09;;;3.51;82.61
56894;BME280;43392;50.078;13.704;2023-02-14T07:39:53;98798.81;;;3.36;83.33
56894;BME280;43392;50.078;13.704;2023-02-14T07:42:19;98805.84;;;3.29;83.90
56894;BME280;43392;50.078;13.704;2023-02-14T07:44:46;98802.09;;;3.23;83.96
56894;BME280;43392;50.078;13.704;2023-02-14T07:47:13;98802.47;;;3.20;84.13
56894;BME280;43392;50.078;13.704;2023-02-14T07:49:39;98803.84;;;3.16;84.43
56894;BME280;43392;50.078;13.704;2023-02-14T07:52:07;98800.72;;;3.13;84.45
56894;BME280;43392;50.078;13.704;2023-02-14T07:54:34;98805.22;;;3.12;84.58
56894;BME280;43392;50.078;13.704;2023-02-14T07:57:00;98805.22;;;3.12;84.47
56894;BME280;43392;50.078;13.704;2023-02-14T07:59:27;98795.41;;;3.13;84.69
56894;BME280;43392;50.078;13.704;2023-02-14T08:01:53;98811.97;;;3.15;84.58
56894;BME280;43392;50.078;13.704;2023-02-14T08:04:20;98799.09;;;3.12;84.31
56894;BME280;43392;50.078;13.704;2023-02-14T08:06:50;98801.28;;;3.08;84.49
56894;BME280;43392;50.078;13.704;2023-02-14T08:09:18;98799.47;;;3.09;84.37
56894;BME280;43392;50.078;13.704;2023-02-14T08:11:49;98806.22;;;3.11;84.54
56894;BME280;43392;50.078;13.704;2023-02-14T08:14:34;98795.41;;;3.13;84.63
56894;BME280;43392;50.078;13.704;2023-02-14T08:17:01;98789.97;;;3.14;84.61
56894;BME280;43392;50.078;13.704;2023-02-14T08:19:28;98794.69;;;3.19;84.51
56894;BME280;43392;50.078;13.704;2023-02-14T08:21:55;98793.69;;;3.20;84.60
56894;BME280;43392;50.078;13.704;2023-02-14T08:24:23;98800.28;;;3.24;84.42
56894;BME280;43392;50.078;13.704;2023-02-14T08:26:49;98800.56;;;3.29;84.47
56894;BME280;43392;50.078;13.704;2023-02-14T08:29:16;98791.84;;;3.35;84.53
56894;BME280;43392;50.078;13.704;2023-02-14T08:31:43;98799.81;;;3.35;84.30
56894;BME280;43392;50.078;13.704;2023-02-14T08:34:11;98797.63;;;3.39;84.05
56894;BME280;43392;50.078;13.704;2023-02-14T08:36:38;98803.56;;;3.41;84.11
56894;BME280;43392;50.078;13.704;2023-02-14T08:39:05;98803.56;;;3.41;84.07
56894;BME280;43392;50.078;13.704;2023-02-14T08:41:33;98805.00;;;3.43;84.04
56894;BME280;43392;50.078;13.704;2023-02-14T08:44:00;98806.84;;;3.43;83.83
56894;BME280;43392;50.078;13.704;2023-02-14T08:46:27;98808.94;;;3.47;83.87
56894;BME280;43392;50.078;13.704;2023-02-14T08:48:54;98805.72;;;3.52;83.65
56894;BME280;43392;50.078;13.704;2023-02-14T08:51:21;98803.69;;;3.54;83.59
56894;BME280;43392;50.078;13.704;2023-02-14T08:53:49;98806.81;;;3.57;83.53
56894;BME280;43392;50.078;13.704;2023-02-14T08:56:16;98795.47;;;3.63;83.35
56894;BME280;43392;50.078;13.704;2023-02-14T08:58:44;98805.31;;;3.69;83.23
56894;BME280;43392;50.078;13.704;2023-02-14T09:01:12;98805.38;;;3.76;83.14
56894;BME280;43392;50.078;13.704;2023-02-14T09:03:39;98812.63;;;3.82;83.14
56894;BME280;43392;50.078;13.704;2023-02-14T09:06:08;98815.91;;;3.84;82.83
56894;BME280;43392;50.078;13.704;2023-02-14T09:08:35;98812.34;;;3.77;82.77
56894;BME280;43392;50.078;13.704;2023-02-14T09:11:06;98817.09;;;3.81;82.71
56894;BME280;43392;50.078;13.704;2023-02-14T09:13:32;98818.09;;;3.80;82.78
56894;BME280;43392;50.078;13.704;2023-02-14T09:16:03;98816.28;;;3.81;82.93
56894;BME280;43392;50.078;13.704;2023-02-14T09:18:30;98818.56;;;3.84;82.75
56894;BME280;43392;50.078;13.704;2023-02-14T09:20:57;98820.22;;;3.85;83.08
56894;BME280;43392;50.078;13.704;2023-02-14T09:23:23;98811.41;;;3.84;82.92
56894;BME280;43392;50.078;13.704;2023-02-14T09:25:50;98816.72;;;3.84;82.76
56894;BME280;43392;50.078;13.704;2023-02-14T09:28:17;98812.97;;;3.79;83.36
56894;BME280;43392;50.078;13.704;2023-02-14T09:30:43;98814.19;;;3.76;83.16
56894;BME280;43392;50.078;13.704;2023-02-14T09:33:11;98814.94;;;3.70;83.42
56894;BME280;43392;50.078;13.704;2023-02-14T09:35:38;98821.50;;;3.74;83.26
56894;BME280;43392;50.078;13.704;2023-02-14T09:38:04;98817.41;;;3.72;83.21
56894;BME280;43392;50.078;13.704;2023-02-14T09:40:43;98815.94;;;3.69;83.48
56894;BME280;43392;50.078;13.704;2023-02-14T09:43:14;98822.25;;;3.68;83.65
56894;BME280;43392;50.078;13.704;2023-02-14T09:45:46;98820.78;;;3.66;83.80
56894;BME280;43392;50.078;13.704;2023-02-14T09:48:25;98814.13;;;3.70;84.24
56894;BME280;43392;50.078;13.704;2023-02-14T09:50:55;98814.53;;;3.73;84.02
56894;BME280;43392;50.078;13.704;2023-02-14T09:53:25;98816.94;;;3.68;83.57
56894;BME280;43392;50.078;13.704;2023-02-14T09:55:58;98817.31;;;3.65;83.69
56894;BME280;43392;50.078;13.704;2023-02-14T09:58:32;98817.31;;;3.65;83.92
56894;BME280;43392;50.078;13.704;2023-02-14T10:01:04;98820.25;;;3.70;83.72
56894;BME280;43392;50.078;13.704;2023-02-14T10:04:09;98824.78;;;3.76;83.58
56894;BME280;43392;50.078;13.704;2023-02-14T10:06:45;98829.28;;;3.76;83.18
56894;BME280;43392;50.078;13.704;2023-02-14T10:09:23;98821.50;;;3.74;82.89
56894;BME280;43392;50.078;13.704;2023-02-14T10:11:53;98825.16;;;3.73;83.05
56894;BME280;43392;50.078;13.704;2023-02-14T10:14:24;98821.72;;;3.73;82.87
56894;BME280;43392;50.078;13.704;2023-02-14T10:16:56;98827.00;;;3.73;82.91
56894;BME280;43392;50.078;13.704;2023-02-14T10:19:27;98824.72;;;3.70;83.07
56894;BME280;43392;50.078;13.704;2023-02-14T10:22:00;98828.38;;;3.69;83.19
56894;BME280;43392;50.078;13.704;2023-02-14T10:24:32;98827.00;;;3.73;82.66
56894;BME280;43392;50.078;13.704;2023-02-14T10:27:04;98831.50;;;3.72;83.00
56894;BME280;43392;50.078;13.704;2023-02-14T10:29:31;98830.47;;;3.73;82.84
56894;BME280;43392;50.078;13.704;2023-02-14T10:31:59;98824.78;;;3.76;82.44
56894;BME280;43392;50.078;13.704;2023-02-14T10:34:33;98821.16;;;3.77;82.43
56894;BME280;43392;50.078;13.704;2023-02-14T10:37:12;98829.38;;;3.82;81.97
56894;BME280;43392;50.078;13.704;2023-02-14T10:40:09;98825.13;;;3.88;81.92
56894;BME280;43392;50.078;13.704;2023-02-14T10:42:48;98832.34;;;3.94;81.91
56894;BME280;43392;50.078;13.704;2023-02-14T10:45:22;98826.09;;;4.01;81.85
56894;BME280;43392;50.078;13.704;2023-02-14T10:47:57;98823.25;;;4.03;81.63
56894;BME280;43392;50.078;13.704;2023-02-14T10:50:34;98831.00;;;4.04;81.36
56894;BME280;43392;50.078;13.704;2023-02-14T10:53:10;98834.06;;;4.01;81.21
56894;BME280;43392;50.078;13.704;2023-02-14T10:55:46;98836.72;;;4.01;81.35
56894;BME280;43392;50.078;13.704;2023-02-14T10:58:17;98838.97;;;4.04;81.14
56894;BME280;43392;50.078;13.704;2023-02-14T11:00:51;98838.81;;;4.06;81.20
56894;BME280;43392;50.078;13.704;2023-02-14T11:03:20;98839.06;;;4.11;80.96
56894;BME280;43392;50.078;13.704;2023-02-14T11:05:49;98832.94;;;4.11;80.85
56894;BME280;43392;50.078;13.704;2023-02-14T11:08:22;98824.34;;;4.09;80.87
56894;BME280;43392;50.078;13.704;2023-02-14T11:10:50;98824.13;;;4.10;80.64
56894;BME280;43392;50.078;13.704;2023-02-14T11:13:29;98821.13;;;4.13;80.62
56894;BME280;43392;50.078;13.704;2023-02-14T11:15:58;98825.97;;;4.10;79.66
56894;BME280;43392;50.078;13.704;2023-02-14T11:18:26;98814.88;;;3.99;79.76
56894;BME280;43392;50.078;13.704;2023-02-14T11:21:04;98823.06;;;4.04;80.53
56894;BME280;43392;50.078;13.704;2023-02-14T11:23:33;98819.03;;;4.09;80.53
56894;BME280;43392;50.078;13.704;2023-02-14T11:26:02;98818.97;;;4.02;79.81
56894;BME280;43392;50.078;13.704;2023-02-14T11:28:29;98820.13;;;3.78;79.39
56894;BME280;43392;50.078;13.704;2023-02-14T11:30:56;98809.19;;;3.67;80.75
56894;BME280;43392;50.078;13.704;2023-02-14T11:33:30;98808.25;;;3.74;80.94
56894;BME280;43392;50.078;13.704;2023-02-14T11:35:58;98797.91;;;3.79;80.76
56894;BME280;43392;50.078;13.704;2023-02-14T11:38:30;98804.69;;;3.67;80.64
56894;BME280;43392;50.078;13.704;2023-02-14T11:41:00;98806.13;;;3.49;81.58
56894;BME280;43392;50.078;13.704;2023-02-14T11:43:32;98800.81;;;3.34;81.90
56894;BME280;43392;50.078;13.704;2023-02-14T11:46:13;98807.06;;;3.12;82.99
56894;BME280;43392;50.078;13.704;2023-02-14T11:48:55;98809.31;;;3.15;83.59
56894;BME280;43392;50.078;13.704;2023-02-14T11:51:30;98804.84;;;3.30;83.25
56894;BME280;43392;50.078;13.704;2023-02-14T11:54:02;98802.28;;;3.37;83.07
56894;BME280;43392;50.078;13.704;2023-02-14T11:56:48;98793.56;;;3.43;83.03
56894;BME280;43392;50.078;13.704;2023-02-14T11:59:27;98794.19;;;3.59;82.80
56894;BME280;43392;50.078;13.704;2023-02-14T12:01:56;98783.47;;;3.67;82.61
56894;BME280;43392;50.078;13.704;2023-02-14T12:04:31;98789.41;;;3.69;82.30
56894;BME280;43392;50.078;13.704;2023-02-14T12:07:14;98792.94;;;3.76;82.62
56894;BME280;43392;50.078;13.704;2023-02-14T12:09:44;98786.19;;;3.74;82.40
56894;BME280;43392;50.078;13.704;2023-02-14T12:12:17;98793.97;;;3.75;82.71
56894;BME280;43392;50.078;13.704;2023-02-14T12:14:44;98799.91;;;3.77;82.32
56894;BME280;43392;50.078;13.704;2023-02-14T12:17:20;98793.16;;;3.75;82.38
56894;BME280;43392;50.078;13.704;2023-02-14T12:19:54;98783.63;;;3.66;82.62
56894;BME280;43392;50.078;13.704;2023-02-14T12:22:27;98786.41;;;3.58;82.74
56894;BME280;43392;50.078;13.704;2023-02-14T12:25:02;98785.22;;;3.60;82.95
56894;BME280;43392;50.078;13.704;2023-02-14T12:27:39;98780.66;;;3.54;82.73
56894;BME280;43392;50.078;13.704;2023-02-14T12:30:13;98781.41;;;3.48;83.16
56894;BME280;43392;50.078;13.704;2023-02-14T12:32:45;98780.22;;;3.51;83.51
56894;BME280;43392;50.078;13.704;2023-02-14T12:35:14;98777.28;;;3.60;83.65
56894;BME280;43392;50.078;13.704;2023-02-14T12:37:49;98781.38;;;3.63;83.07
56894;BME280;43392;50.078;13.704;2023-02-14T12:40:28;98776.06;;;3.63;83.49
56894;BME280;43392;50.078;13.704;2023-02-14T12:43:13;98778.78;;;3.69;83.46
56894;BME280;43392;50.078;13.704;2023-02-14T12:46:03;98770.59;;;3.85;83.55
56894;BME280;43392;50.078;13.704;2023-02-14T12:48:48;98760.69;;;3.94;83.03
56894;BME280;43392;50.078;13.704;2023-02-14T12:51:23;98758.41;;;4.33;88.92
56894;BME280;43392;50.078;13.704;2023-02-14T12:54:01;98751.06;;;5.92;81.68
56894;BME280;43392;50.078;13.704;2023-02-14T12:56:41;98743.16;;;5.58;77.78
56894;BME280;43392;50.078;13.704;2023-02-14T12:59:20;98746.44;;;5.06;78.56
56894;BME280;43392;50.078;13.704;2023-02-14T13:02:00;98751.75;;;4.72;79.88
56894;BME280;43392;50.078;13.704;2023-02-14T13:04:56;98744.34;;;4.39;80.58
56894;BME280;43392;50.078;13.704;2023-02-14T13:07:40;98742.22;;;4.07;81.68
56894;BME280;43392;50.078;13.704;2023-02-14T13:10:21;98746.47;;;4.01;82.85
56894;BME280;43392;50.078;13.704;2023-02-14T13:12:58;98747.94;;;4.04;82.73
56894;BME280;43392;50.078;13.704;2023-02-14T13:15:34;98750.75;;;4.02;82.63
56894;BME280;43392;50.078;13.704;2023-02-14T13:18:11;98740.97;;;4.03;83.01
56894;BME280;43392;50.078;13.704;2023-02-14T13:20:48;98736.75;;;4.09;83.30
56894;BME280;43392;50.078;13.704;2023-02-14T13:23:19;98738.63;;;4.15;83.11
56894;BME280;43392;50.078;13.704;2023-02-14T13:25:51;98733.88;;;4.10;82.68